Monday, February 18, 2019, 5:49 AM EST
Back to Local

KAQW, N Adams Harriman-and-west

Location: North Adams, MA, United States Lat: 42.7
Local Time: 5:49 AM EST (10:49 GMT) Lon: -73.167
Time Zone: US/Eastern Elev: 652 ft

Show me the last for .
Show Decoded

2019-02-18 05:28 METAR KAQW 181028Z AUTO 09007KT 3SM -SN BR OVC027 M03/M05 A2982 RMK AO2 SNB10
                 P0000 T10331050 =
2019-02-18 04:52 METAR KAQW 180952Z AUTO 08006KT 10SM BKN047 OVC055 M03/M05 A2983 RMK AO2 SNE16
                 SLP108 P0000 T10331050 =
2019-02-18 03:52 METAR KAQW 180852Z AUTO 08005KT 4SM -SN BR FEW027 OVC037 M03/M04 A2985 RMK AO2
                 SNE33B45 SLP116 P0001 60001 T10331044 58024 =
2019-02-18 03:35 METAR KAQW 180835Z AUTO 07005KT 6SM BR BKN028 OVC039 M03/M04 A2987 RMK AO2 SNE33
                 P0000 T10331044 =
2019-02-18 03:26 METAR KAQW 180826Z AUTO 06005KT 4SM -SN BR SCT028 BKN036 OVC043 M03/M04 A2986
                 RMK AO2 P0000 T10331044 =
2019-02-18 03:14 METAR KAQW 180814Z AUTO 09005KT 2 1/2SM -SN BR FEW026 OVC039 M03/M04 A2985 RMK
                 AO2 P0000 T10331044 =
2019-02-18 03:03 METAR KAQW 180803Z AUTO 09005KT 3SM -SN BR OVC037 M03/M04 A2987 RMK AO2 P0000
                 T10331044 =
2019-02-18 02:52 METAR KAQW 180752Z AUTO 08005KT 2 1/2SM -SN BR OVC035 M03/M04 A2987 RMK AO2
                 PRESFR SLP123 P0000 T10331044 =
2019-02-18 02:03 METAR KAQW 180703Z AUTO 08006KT 2SM -SN BR OVC032 M03/M04 A2989 RMK AO2 P0000
                 T10331044 =
2019-02-18 01:52 METAR KAQW 180652Z AUTO 06005KT 1 3/4SM -SN BR OVC030 M03/M04 A2991 RMK AO2
                 SLP136 P0000 T10331044 =
2019-02-18 01:37 METAR KAQW 180637Z AUTO 07005KT 1 3/4SM -SN BR OVC026 M03/M04 A2991 RMK AO2
                 P0000 T10331044 =
2019-02-18 01:24 METAR KAQW 180624Z AUTO 06006KT 1 3/4SM -SN BR OVC032 M03/M04 A2990 RMK AO2
                 P0000 T10331044 =
2019-02-18 01:11 METAR KAQW 180611Z AUTO 07005KT 2 1/2SM -SN BR OVC032 M03/M04 A2992 RMK AO2
                 P0000 T10331044 =
2019-02-18 01:01 METAR KAQW 180601Z AUTO 08007KT 2 1/2SM -SN BR OVC026 M03/M04 A2992 RMK AO2
                 P0000 T10331044 =
2019-02-18 00:52 METAR KAQW 180552Z AUTO VRB06KT 1 3/4SM -SN BR OVC020 M04/M06 A2992 RMK AO2
                 SNB08 SLP142 P0000 60000 T10391056 11028 21044 58014 =
2019-02-18 00:39 METAR KAQW 180539Z AUTO 00000KT 1 1/4SM -SN BR OVC019 M04/M07 A2993 RMK AO2
                 SNB08 P0000 T10441067 =
2019-02-18 00:18 METAR KAQW 180518Z AUTO 10003KT 2 1/2SM -SN BKN023 OVC039 M03/M08 A2995 RMK AO2
                 SNB08 P0000 T10331083 =
2019-02-17 23:52 METAR KAQW 180452Z AUTO 00000KT 10SM FEW039 OVC060 M03/M09 A2994 RMK AO2 SLP149
                 T10331094 400001106 =
2019-02-17 22:52 METAR KAQW 180352Z AUTO 00000KT 10SM FEW050 OVC070 M03/M10 A2996 RMK AO2 SLP155
                 T10331100 =
2019-02-17 21:52 METAR KAQW 180252Z AUTO 08003KT 10SM OVC060 M03/M10 A2996 RMK AO2 SLP158
                 T10331100 56015 =
2019-02-17 20:52 METAR KAQW 180152Z AUTO 00000KT 10SM OVC085 M03/M11 A2998 RMK AO2 SLP164
                 T10331111 =
2019-02-17 19:52 METAR KAQW 180052Z AUTO 28003KT 10SM BKN100 OVC120 M03/M11 A2999 RMK AO2 SLP166
                 T10331111 =
2019-02-17 18:52 METAR KAQW 172352Z AUTO 23004KT 10SM OVC110 M03/M12 A3001 RMK AO2 SLP173
                 T10331117 10000 21033 55001 =
2019-02-17 17:52 METAR KAQW 172252Z AUTO 00000KT 10SM CLR M03/M13 A3000 RMK AO2 SLP170 T10281128
                 =
2019-02-17 16:52 METAR KAQW 172152Z AUTO VRB04KT 10SM CLR M02/M13 A3001 RMK AO2 SLP172 T10171128
                 =
2019-02-17 15:52 METAR KAQW 172052Z AUTO VRB06KT 10SM CLR M01/M13 A3001 RMK AO2 SLP173 T10111128
                 58019 =
2019-02-17 14:52 METAR KAQW 171952Z AUTO 28007KT 10SM CLR M01/M13 A3005 RMK AO2 SLP186 T10061133
                 =
2019-02-17 13:52 METAR KAQW 171852Z AUTO 33005KT 10SM CLR M01/M13 A3008 RMK AO2 SLP197 T10111133
                 =
2019-02-17 12:52 METAR KAQW 171752Z AUTO VRB04KT 10SM CLR M02/M12 A3007 RMK AO2 SLP192 T10221122
                 11022 21106 58023 =
2019-02-17 11:52 METAR KAQW 171652Z AUTO VRB05KT 10SM CLR M03/M12 A3009 RMK AO2 SLP200 T10281122
                 =
2019-02-17 10:52 METAR KAQW 171552Z AUTO 28007KT 10SM CLR M04/M12 A3012 RMK AO2 SLP210 T10441122
                 =
2019-02-17 09:52 METAR KAQW 171452Z AUTO 27005KT 10SM CLR M06/M12 A3014 RMK AO2 SLP216 T10611122
                 50015 =
2019-02-17 08:52 METAR KAQW 171352Z AUTO 27008KT 10SM CLR M07/M12 A3014 RMK AO2 SLP218 T10721122
                 =
2019-02-17 07:52 METAR KAQW 171252Z AUTO 26005KT 10SM CLR M08/M12 A3013 RMK AO2 SLP216 T10831122
                 =
2019-02-17 06:52 METAR KAQW 171152Z AUTO 27006KT 10SM CLR M11/M13 A3009 RMK AO2 SLP201 T11061128
                 11067 21106 51014 =
2019-02-17 05:52 METAR KAQW 171052Z AUTO 28005KT 10SM CLR M09/M13 A3008 RMK AO2 SLP198 T10891128
                 =

Support USWX by starting your Amazon purchase here.